createdAt,value
2019-01-26T00:01:17.971Z,116.33
2019-01-26T00:03:45.658Z,108.80
2019-01-26T00:06:15.496Z,108.67
2019-01-26T00:08:43.194Z,111.63
2019-01-26T00:11:10.827Z,115.43
2019-01-26T00:13:38.526Z,121.50
2019-01-26T00:16:06.163Z,116.20
2019-01-26T00:18:35.037Z,130.17
2019-01-26T00:21:03.039Z,122.47
2019-01-26T00:23:30.666Z,120.13
2019-01-26T00:25:58.286Z,111.27
2019-01-26T00:28:25.951Z,121.20
2019-01-26T00:30:53.616Z,119.47
2019-01-26T00:33:22.384Z,115.70
2019-01-26T00:35:50.041Z,121.00
2019-01-26T00:38:18.067Z,121.53
2019-01-26T00:40:45.755Z,111.13
2019-01-26T00:43:13.412Z,101.67
2019-01-26T00:45:41.673Z,107.90
2019-01-26T00:48:09.323Z,112.93
2019-01-26T00:50:37.327Z,105.80
2019-01-26T00:53:04.977Z,106.37
2019-01-26T00:55:32.647Z,105.83
2019-01-26T00:58:00.284Z,112.37
2019-01-26T01:00:28.346Z,107.43
2019-01-26T01:02:56.029Z,95.47
2019-01-26T01:05:24.433Z,107.37
2019-01-26T01:07:52.510Z,97.23
2019-01-26T01:10:20.232Z,102.23
2019-01-26T01:12:48.218Z,115.43
2019-01-26T01:15:15.922Z,98.57
2019-01-26T01:17:43.632Z,108.27
2019-01-26T01:20:11.507Z,110.53
2019-01-26T01:22:39.150Z,109.53
2019-01-26T01:25:07.632Z,100.90
2019-01-26T01:27:35.374Z,107.83
2019-01-26T01:30:04.799Z,98.80
2019-01-26T01:32:32.473Z,112.07
2019-01-26T01:35:00.181Z,110.90
2019-01-26T01:37:28.114Z,103.80
2019-01-26T01:39:55.758Z,97.97
2019-01-26T01:42:23.701Z,100.90
2019-01-26T01:44:51.342Z,109.47
2019-01-26T01:47:19.023Z,95.00
2019-01-26T01:49:46.684Z,99.07
2019-01-26T01:52:14.292Z,108.17
2019-01-26T01:54:42.160Z,95.13
2019-01-26T01:57:10.483Z,92.37
2019-01-26T01:59:38.455Z,93.13
2019-01-26T02:02:06.448Z,104.23
2019-01-26T02:04:34.403Z,107.47
2019-01-26T02:07:02.091Z,97.70
2019-01-26T02:09:29.750Z,104.47
2019-01-26T02:11:57.694Z,110.07
2019-01-26T02:14:25.386Z,127.93
2019-01-26T02:16:53.040Z,107.00
2019-01-26T02:19:20.705Z,101.67
2019-01-26T02:21:49.245Z,103.13
2019-01-26T02:24:17.204Z,99.00
2019-01-26T02:26:44.852Z,110.73
2019-01-26T02:29:12.485Z,105.23
2019-01-26T02:31:40.827Z,95.97
2019-01-26T02:34:08.497Z,93.90
2019-01-26T02:36:36.583Z,100.17
2019-01-26T02:39:06.668Z,95.40
2019-01-26T02:41:34.347Z,105.00
2019-01-26T02:44:02.019Z,101.47
2019-01-26T02:46:29.679Z,108.80
2019-01-26T02:48:57.524Z,100.90
2019-01-26T02:51:25.244Z,100.40
2019-01-26T02:53:53.056Z,101.30
2019-01-26T02:56:21.083Z,99.73
2019-01-26T02:58:48.900Z,95.40
2019-01-26T03:01:16.962Z,94.27
2019-01-26T03:03:44.598Z,89.70
2019-01-26T03:06:12.278Z,83.70
2019-01-26T03:08:40.049Z,90.67
2019-01-26T03:11:07.982Z,101.83
2019-01-26T03:13:35.659Z,95.73
2019-01-26T03:16:04.713Z,98.63
2019-01-26T03:18:32.353Z,79.70
2019-01-26T03:20:59.978Z,89.93
2019-01-26T03:23:29.042Z,88.20
2019-01-26T03:25:56.698Z,93.90
2019-01-26T03:28:24.327Z,91.80
2019-01-26T03:30:52.003Z,88.40
2019-01-26T03:33:20.677Z,77.23
2019-01-26T03:35:48.315Z,75.40
2019-01-26T03:38:15.927Z,90.20
2019-01-26T03:40:43.611Z,75.43
2019-01-26T03:43:11.213Z,86.57
2019-01-26T03:45:38.841Z,78.33
2019-01-26T03:48:06.692Z,92.27
2019-01-26T03:50:34.324Z,86.53
2019-01-26T03:53:01.921Z,96.23
2019-01-26T03:55:29.894Z,97.07
2019-01-26T03:57:57.530Z,94.13
2019-01-26T04:00:26.049Z,103.03
2019-01-26T04:02:53.952Z,97.87
2019-01-26T04:05:21.838Z,110.13
2019-01-26T04:07:50.951Z,109.00
2019-01-26T04:10:18.683Z,109.03
2019-01-26T04:12:46.290Z,123.00
2019-01-26T04:15:15.801Z,107.73
2019-01-26T04:17:43.412Z,120.40
2019-01-26T04:20:16.456Z,142.00
2019-01-26T04:22:44.493Z,146.63
2019-01-26T04:25:12.486Z,171.93
2019-01-26T04:27:40.089Z,142.27
2019-01-26T04:30:10.606Z,179.27
2019-01-26T04:32:38.333Z,191.03
2019-01-26T04:35:06.619Z,197.73
2019-01-26T04:37:36.804Z,187.27
2019-01-26T04:40:06.691Z,185.03
2019-01-26T04:42:34.327Z,199.83
2019-01-26T04:45:02.007Z,203.43
2019-01-26T04:47:30.961Z,187.83
2019-01-26T04:49:59.076Z,196.33
2019-01-26T04:52:27.060Z,177.97
2019-01-26T04:54:54.698Z,182.77
2019-01-26T04:57:22.391Z,179.13
2019-01-26T04:59:50.024Z,182.97
2019-01-26T05:02:17.681Z,179.43
2019-01-26T05:04:45.302Z,173.27
2019-01-26T05:07:13.239Z,182.67
2019-01-26T05:09:40.871Z,156.03
2019-01-26T05:12:08.577Z,175.97
2019-01-26T05:14:36.189Z,163.37
2019-01-26T05:17:03.872Z,165.13
2019-01-26T05:19:31.480Z,164.10
2019-01-26T05:21:59.148Z,147.37
2019-01-26T05:24:26.777Z,152.37
2019-01-26T05:26:54.437Z,148.20
2019-01-26T05:29:22.093Z,153.70
2019-01-26T05:31:50.093Z,148.07
2019-01-26T05:34:18.917Z,144.73
2019-01-26T05:36:46.555Z,157.17
2019-01-26T05:39:14.473Z,143.33
2019-01-26T05:41:42.174Z,149.63
2019-01-26T05:44:09.824Z,151.47
2019-01-26T05:46:37.463Z,151.67
2019-01-26T05:49:05.106Z,142.17
2019-01-26T05:51:34.789Z,167.63
2019-01-26T05:54:03.179Z,157.57
2019-01-26T05:56:30.828Z,158.53
2019-01-26T05:58:58.456Z,148.37
2019-01-26T06:01:26.115Z,137.37
2019-01-26T06:03:53.780Z,149.27
2019-01-26T06:06:21.436Z,156.73
2019-01-26T06:08:50.705Z,187.63
2019-01-26T06:11:18.388Z,177.70
2019-01-26T06:13:46.475Z,189.20
2019-01-26T06:16:14.111Z,191.60
2019-01-26T06:18:41.798Z,206.50
2019-01-26T06:21:10.515Z,200.37
2019-01-26T06:23:38.206Z,198.23
2019-01-26T06:26:06.193Z,209.67
2019-01-26T06:28:33.877Z,199.85
2019-01-26T06:31:01.492Z,201.77
2019-01-26T06:33:29.478Z,196.87
2019-01-26T06:36:01.357Z,192.23
2019-01-26T06:38:29.031Z,177.10
2019-01-26T06:40:56.758Z,190.00
2019-01-26T06:43:24.427Z,195.47
2019-01-26T06:45:52.400Z,200.60
2019-01-26T06:48:20.372Z,204.77
2019-01-26T06:50:48.403Z,188.57
2019-01-26T06:53:17.298Z,259.10
2019-01-26T06:55:44.928Z,203.17
2019-01-26T06:58:12.979Z,208.50
2019-01-26T07:00:40.671Z,201.83
2019-01-26T07:03:08.705Z,205.23
2019-01-26T07:05:56.974Z,205.97
2019-01-26T07:08:25.224Z,193.77
2019-01-26T07:10:53.303Z,209.83
2019-01-26T07:13:22.091Z,204.70
2019-01-26T07:15:50.393Z,199.37
2019-01-26T07:18:18.002Z,194.80
2019-01-26T07:20:46.149Z,190.50
2019-01-26T07:23:14.175Z,189.07
2019-01-26T07:25:41.863Z,204.20
2019-01-26T07:28:09.594Z,188.80
2019-01-26T07:30:37.262Z,200.57
2019-01-26T07:33:06.000Z,195.20
2019-01-26T07:35:33.815Z,185.13
2019-01-26T07:38:01.454Z,190.83
2019-01-26T07:40:29.259Z,191.27
2019-01-26T07:42:56.978Z,203.23
2019-01-26T07:45:25.100Z,199.23
2019-01-26T07:47:52.794Z,189.30
2019-01-26T07:50:20.995Z,189.00
2019-01-26T07:52:48.941Z,184.60
2019-01-26T07:55:16.728Z,183.67
2019-01-26T07:57:44.608Z,212.13
2019-01-26T08:00:15.722Z,189.90
2019-01-26T08:02:43.405Z,187.20
2019-01-26T08:05:11.627Z,193.53
2019-01-26T08:07:40.409Z,193.87
2019-01-26T08:10:11.058Z,187.87
2019-01-26T08:12:38.700Z,190.83
2019-01-26T08:15:08.189Z,193.73
2019-01-26T08:17:35.825Z,177.50
2019-01-26T08:20:05.542Z,160.27
2019-01-26T08:22:33.152Z,181.03
2019-01-26T08:25:00.853Z,159.20
2019-01-26T08:27:28.568Z,153.47
2019-01-26T08:29:56.217Z,143.80
2019-01-26T08:32:24.326Z,147.77
2019-01-26T08:34:52.197Z,140.27
2019-01-26T08:37:20.049Z,141.37
2019-01-26T08:39:47.811Z,138.10
2019-01-26T08:42:16.693Z,138.03
2019-01-26T08:44:44.662Z,127.47
2019-01-26T08:47:12.518Z,135.10
2019-01-26T08:49:40.167Z,130.47
2019-01-26T08:52:07.969Z,121.40
2019-01-26T08:54:35.635Z,109.93
2019-01-26T08:57:03.396Z,114.97
2019-01-26T08:59:31.866Z,99.67
2019-01-26T09:02:25.442Z,103.80
2019-01-26T09:04:52.865Z,108.97
2019-01-26T09:07:20.536Z,102.87
2019-01-26T09:09:48.816Z,101.27
2019-01-26T09:12:16.480Z,100.10
2019-01-26T09:14:44.133Z,100.67
2019-01-26T09:17:12.101Z,101.60
2019-01-26T09:19:40.066Z,107.77
2019-01-26T09:22:08.640Z,95.90
2019-01-26T09:24:37.965Z,84.57
2019-01-26T09:27:05.635Z,83.93
2019-01-26T09:29:33.421Z,84.10
2019-01-26T09:32:01.075Z,69.17
2019-01-26T09:34:28.788Z,77.00
2019-01-26T09:36:56.438Z,72.70
2019-01-26T09:39:24.131Z,61.50
2019-01-26T09:41:51.770Z,64.73
2019-01-26T09:44:19.469Z,51.17
2019-01-26T09:46:47.524Z,46.57
2019-01-26T09:49:15.105Z,43.33
2019-01-26T09:51:42.743Z,30.70
2019-01-26T09:54:10.443Z,33.57
2019-01-26T09:56:38.056Z,32.53
2019-01-26T09:59:06.092Z,27.87
2019-01-26T10:01:33.750Z,22.67
2019-01-26T10:04:02.175Z,20.90
2019-01-26T10:06:29.845Z,23.13
2019-01-26T10:08:57.999Z,13.60
2019-01-26T10:11:26.619Z,13.97
2019-01-26T10:13:55.267Z,18.63
2019-01-26T10:16:24.166Z,15.60
2019-01-26T10:18:53.692Z,16.23
2019-01-26T10:21:21.750Z,16.40
2019-01-26T10:23:49.764Z,15.00
2019-01-26T10:26:18.149Z,17.70
2019-01-26T10:28:45.711Z,19.97
2019-01-26T10:31:13.792Z,13.33
2019-01-26T10:33:41.554Z,17.00
2019-01-26T10:36:22.381Z,17.10
2019-01-26T10:39:18.950Z,16.13
2019-01-26T10:42:06.620Z,21.00
2019-01-26T10:44:34.969Z,19.80
2019-01-26T10:47:03.120Z,22.43
2019-01-26T10:49:30.828Z,23.57
2019-01-26T10:51:58.809Z,18.53
2019-01-26T10:54:26.471Z,13.17
2019-01-26T10:56:54.219Z,14.60
2019-01-26T10:59:22.662Z,11.53
2019-01-26T11:01:50.978Z,10.80
2019-01-26T11:04:18.668Z,12.30
2019-01-26T11:06:46.631Z,13.67
2019-01-26T11:09:14.324Z,7.90
2019-01-26T11:11:41.935Z,6.00
2019-01-26T11:14:09.658Z,6.13
2019-01-26T11:16:37.287Z,6.40
2019-01-26T11:19:08.041Z,10.03
2019-01-26T11:21:35.124Z,7.90
2019-01-26T11:24:03.108Z,8.93
2019-01-26T11:26:30.761Z,6.80
2019-01-26T11:28:58.448Z,9.40
2019-01-26T11:31:26.405Z,7.40
2019-01-26T11:33:54.060Z,9.50
2019-01-26T11:36:21.762Z,10.00
2019-01-26T11:38:49.787Z,11.63
2019-01-26T11:41:17.445Z,6.67
2019-01-26T11:43:45.781Z,7.67
2019-01-26T11:46:31.572Z,8.60
2019-01-26T11:48:59.600Z,7.87
2019-01-26T11:51:52.484Z,5.90
2019-01-26T11:54:20.165Z,6.50
2019-01-26T11:57:14.181Z,5.30
2019-01-26T11:59:43.662Z,5.80
2019-01-26T12:02:39.712Z,4.83
2019-01-26T12:05:28.188Z,4.47
2019-01-26T12:07:55.804Z,5.03
2019-01-26T12:10:23.510Z,4.53
2019-01-26T12:12:51.138Z,4.03
2019-01-26T12:15:18.785Z,3.40
2019-01-26T12:17:46.443Z,3.97
2019-01-26T12:20:14.697Z,5.53
2019-01-26T12:22:42.296Z,5.33
2019-01-26T12:25:10.428Z,6.00
2019-01-26T12:27:38.862Z,6.97
2019-01-26T12:30:08.039Z,3.77
2019-01-26T12:32:36.534Z,5.17
2019-01-26T12:35:05.560Z,3.63
2019-01-26T12:37:33.290Z,5.50
2019-01-26T12:40:01.077Z,5.43
2019-01-26T12:42:28.750Z,4.70
2019-01-26T12:44:56.402Z,5.77
2019-01-26T12:47:24.040Z,5.73
2019-01-26T12:49:52.293Z,11.40
2019-01-26T12:52:19.965Z,4.40
2019-01-26T12:54:47.585Z,6.10
2019-01-26T12:57:15.240Z,7.70
2019-01-26T12:59:42.886Z,7.47
2019-01-26T13:02:10.856Z,5.40
2019-01-26T13:04:39.092Z,4.63
2019-01-26T13:07:06.751Z,5.20
2019-01-26T13:09:35.613Z,10.33
2019-01-26T13:12:04.494Z,7.13
2019-01-26T13:14:32.266Z,4.80
2019-01-26T13:17:01.087Z,8.57
2019-01-26T13:19:28.779Z,11.80
2019-01-26T13:21:56.534Z,7.03
2019-01-26T13:24:25.371Z,5.70
2019-01-26T13:26:53.043Z,5.90
2019-01-26T13:29:20.929Z,5.20
2019-01-26T13:31:48.796Z,7.60
2019-01-26T13:34:16.869Z,2.97
2019-01-26T13:36:44.914Z,3.53
2019-01-26T13:39:12.636Z,6.43
2019-01-26T13:41:41.410Z,7.93
2019-01-26T13:44:09.497Z,5.07
2019-01-26T13:46:37.450Z,3.93
2019-01-26T13:49:05.361Z,6.63
2019-01-26T13:51:34.078Z,5.80
2019-01-26T13:54:07.289Z,3.00
2019-01-26T13:56:35.452Z,4.03
2019-01-26T13:59:04.224Z,6.17
2019-01-26T14:01:31.940Z,3.93
2019-01-26T14:03:59.793Z,2.80
2019-01-26T14:06:28.845Z,5.87
2019-01-26T14:08:56.486Z,3.30
2019-01-26T14:11:24.160Z,3.27
2019-01-26T14:13:52.200Z,5.80
2019-01-26T14:16:20.252Z,4.60
2019-01-26T14:18:48.787Z,4.07
2019-01-26T14:21:17.600Z,3.30
2019-01-26T14:23:45.256Z,5.50
2019-01-26T14:26:13.405Z,5.10
2019-01-26T14:28:41.281Z,5.13
2019-01-26T14:31:09.137Z,4.10
2019-01-26T14:33:37.299Z,2.60
2019-01-26T14:36:04.970Z,4.30
2019-01-26T14:38:32.654Z,7.73
2019-01-26T14:41:00.330Z,2.07
2019-01-26T14:43:28.207Z,5.77
2019-01-26T14:45:56.641Z,2.33
2019-01-26T14:48:24.408Z,4.67
2019-01-26T14:50:52.054Z,7.37
2019-01-26T14:53:19.792Z,4.63
2019-01-26T14:55:47.724Z,12.13
2019-01-26T14:58:15.612Z,7.00
2019-01-26T15:00:43.534Z,6.47
2019-01-26T15:03:12.126Z,3.47
2019-01-26T15:05:39.900Z,8.63
2019-01-26T15:08:07.565Z,4.30
2019-01-26T15:10:35.614Z,4.20
2019-01-26T15:13:03.978Z,8.63
2019-01-26T15:15:31.960Z,4.83
2019-01-26T15:17:59.595Z,3.03
2019-01-26T15:20:30.120Z,5.83
2019-01-26T15:22:57.921Z,6.50
2019-01-26T15:25:25.984Z,2.80
2019-01-26T15:27:54.453Z,5.00
2019-01-26T15:30:25.321Z,4.47
2019-01-26T15:32:53.788Z,3.87
2019-01-26T15:35:21.423Z,3.57
2019-01-26T15:37:49.136Z,3.30
2019-01-26T15:40:17.187Z,2.23
2019-01-26T15:42:45.167Z,2.60
2019-01-26T15:45:15.872Z,2.90
2019-01-26T15:47:43.620Z,2.50
2019-01-26T15:50:13.181Z,3.13
2019-01-26T15:52:40.975Z,2.57
2019-01-26T15:55:11.818Z,7.33
2019-01-26T15:57:39.483Z,4.13
2019-01-26T16:00:19.451Z,11.77
2019-01-26T16:02:47.198Z,1.93
2019-01-26T16:05:15.331Z,4.30
2019-01-26T16:07:43.778Z,2.63
2019-01-26T16:10:13.380Z,2.77
2019-01-26T16:12:41.008Z,3.37
2019-01-26T16:15:11.152Z,6.03
2019-01-26T16:17:38.831Z,5.83
2019-01-26T16:20:08.391Z,3.47
2019-01-26T16:22:36.022Z,4.53
2019-01-26T16:25:04.788Z,2.43
2019-01-26T16:27:33.728Z,3.50
2019-01-26T16:30:01.797Z,3.80
2019-01-26T16:32:29.693Z,3.77
2019-01-26T16:34:57.873Z,4.17
2019-01-26T16:37:25.851Z,5.70
2019-01-26T16:40:06.820Z,5.73
2019-01-26T16:42:34.647Z,10.30
2019-01-26T16:45:02.691Z,10.13
2019-01-26T16:47:30.495Z,12.20
2019-01-26T16:49:58.166Z,11.63
2019-01-26T16:52:26.266Z,15.43
2019-01-26T16:55:15.282Z,17.10
2019-01-26T16:57:42.928Z,14.83
2019-01-26T17:00:13.959Z,15.10
2019-01-26T17:02:42.160Z,14.37
2019-01-26T17:05:10.242Z,14.20
2019-01-26T17:07:39.802Z,13.67
2019-01-26T17:10:09.401Z,16.43
2019-01-26T17:12:37.342Z,13.80
2019-01-26T17:15:06.177Z,15.57
2019-01-26T17:17:33.883Z,13.87
2019-01-26T17:20:01.539Z,14.90
2019-01-26T17:22:29.224Z,15.27
2019-01-26T17:24:56.889Z,18.77
2019-01-26T17:27:24.626Z,19.13
2019-01-26T17:29:52.411Z,22.73
2019-01-26T17:32:23.729Z,22.43
2019-01-26T17:34:51.391Z,26.73
2019-01-26T17:37:19.043Z,30.77
2019-01-26T17:39:48.999Z,26.40
2019-01-26T17:42:16.877Z,27.10
2019-01-26T17:44:44.557Z,28.40
2019-01-26T17:47:12.284Z,26.70
2019-01-26T17:49:39.959Z,26.63
2019-01-26T17:52:07.632Z,25.87
2019-01-26T17:54:35.618Z,25.73
2019-01-26T17:57:03.304Z,27.03
2019-01-26T17:59:34.134Z,24.17
2019-01-26T18:02:01.796Z,22.83
2019-01-26T18:04:29.528Z,23.17
2019-01-26T18:06:57.270Z,22.47
2019-01-26T18:09:24.918Z,21.70
2019-01-26T18:11:52.889Z,20.30
2019-01-26T18:14:20.888Z,20.07
2019-01-26T18:16:48.994Z,19.73
2019-01-26T18:19:18.146Z,20.43
2019-01-26T18:21:46.237Z,20.37
2019-01-26T18:24:14.203Z,19.80
2019-01-26T18:26:42.010Z,19.50
2019-01-26T18:29:09.861Z,20.33
2019-01-26T18:31:37.758Z,20.00
2019-01-26T18:34:05.387Z,20.53
2019-01-26T18:36:33.836Z,21.63
2019-01-26T18:39:02.133Z,21.83
2019-01-26T18:41:29.782Z,21.50
2019-01-26T18:43:57.443Z,21.13
2019-01-26T18:46:26.185Z,18.53
2019-01-26T18:48:54.239Z,20.00
2019-01-26T18:51:22.225Z,21.33
2019-01-26T18:53:50.050Z,15.20
2019-01-26T18:56:17.703Z,17.00
2019-01-26T18:58:45.725Z,15.70
2019-01-26T19:01:13.432Z,16.07
2019-01-26T19:03:47.256Z,16.97
2019-01-26T19:06:14.943Z,15.13
2019-01-26T19:08:42.633Z,14.73
2019-01-26T19:11:10.343Z,14.70
2019-01-26T19:13:38.039Z,13.47
2019-01-26T19:16:06.100Z,13.97
2019-01-26T19:18:34.451Z,14.37
2019-01-26T19:21:06.958Z,13.27
2019-01-26T19:23:34.661Z,14.43
2019-01-26T19:26:02.382Z,9.93
2019-01-26T19:28:30.413Z,12.27
2019-01-26T19:30:58.171Z,9.67
2019-01-26T19:33:26.334Z,7.78
2019-01-26T19:35:55.228Z,8.53
2019-01-26T19:38:24.081Z,6.87
2019-01-26T19:40:51.771Z,8.13
2019-01-26T19:43:19.427Z,8.67
2019-01-26T19:45:48.265Z,10.37
2019-01-26T19:48:16.502Z,9.70
2019-01-26T19:50:44.126Z,10.97
2019-01-26T19:53:11.814Z,11.50
2019-01-26T19:55:39.467Z,9.20
2019-01-26T19:58:07.176Z,8.30
2019-01-26T20:00:35.220Z,8.27
2019-01-26T20:03:03.033Z,8.17
2019-01-26T20:05:30.716Z,7.73
2019-01-26T20:07:58.702Z,6.10
2019-01-26T20:10:26.358Z,6.10
2019-01-26T20:12:54.092Z,5.50
2019-01-26T20:15:22.091Z,5.73
2019-01-26T20:17:49.921Z,3.53
2019-01-26T20:20:23.194Z,3.60
2019-01-26T20:22:50.817Z,5.37
2019-01-26T20:25:18.533Z,3.33
2019-01-26T20:27:46.542Z,3.47
2019-01-26T20:30:18.249Z,3.27
2019-01-26T20:32:46.414Z,2.10
2019-01-26T20:35:14.107Z,2.10
2019-01-26T20:37:41.767Z,2.70
2019-01-26T20:40:11.841Z,2.90
2019-01-26T20:42:40.044Z,2.10
2019-01-26T20:45:10.758Z,2.40
2019-01-26T20:47:38.451Z,2.07
2019-01-26T20:50:07.297Z,2.77
2019-01-26T20:52:34.962Z,2.43
2019-01-26T20:55:03.271Z,2.17
2019-01-26T20:57:31.261Z,2.07
2019-01-26T20:59:58.964Z,2.60
2019-01-26T21:02:26.639Z,2.27
2019-01-26T21:04:55.168Z,2.30
2019-01-26T21:07:23.225Z,2.27
2019-01-26T21:09:51.200Z,2.73
2019-01-26T21:12:19.169Z,2.40
2019-01-26T21:14:46.931Z,2.20
2019-01-26T21:17:14.693Z,3.40
2019-01-26T21:19:42.362Z,2.47
2019-01-26T21:22:09.975Z,2.80
2019-01-26T21:24:37.669Z,3.07
2019-01-26T21:27:05.313Z,4.10
2019-01-26T21:29:33.312Z,4.33
2019-01-26T21:32:00.922Z,4.93
2019-01-26T21:34:28.626Z,4.90
2019-01-26T21:36:56.257Z,5.57
2019-01-26T21:39:23.963Z,4.80
2019-01-26T21:41:51.684Z,5.27
2019-01-26T21:44:19.433Z,4.97
2019-01-26T21:46:47.153Z,5.10
2019-01-26T21:49:14.803Z,5.50
2019-01-26T21:51:42.535Z,4.27
2019-01-26T21:54:10.196Z,4.73
2019-01-26T21:56:37.851Z,5.07
2019-01-26T21:59:05.526Z,7.67
2019-01-26T22:01:33.154Z,6.03
2019-01-26T22:04:01.159Z,5.30
2019-01-26T22:06:28.803Z,5.10
2019-01-26T22:08:56.431Z,5.03
2019-01-26T22:11:24.109Z,3.77
2019-01-26T22:13:51.777Z,3.03
2019-01-26T22:16:20.849Z,4.13
2019-01-26T22:18:48.979Z,2.63
2019-01-26T22:21:16.730Z,2.07
2019-01-26T22:23:44.813Z,1.00
2019-01-26T22:26:12.636Z,1.90
2019-01-26T22:28:40.767Z,2.87
2019-01-26T22:31:08.434Z,2.17
2019-01-26T22:33:36.182Z,1.43
2019-01-26T22:36:03.875Z,1.50
2019-01-26T22:38:31.915Z,1.83
2019-01-26T22:41:00.023Z,1.80
2019-01-26T22:43:27.728Z,2.00
2019-01-26T22:45:55.450Z,2.80
2019-01-26T22:48:23.260Z,3.10
2019-01-26T22:50:51.009Z,2.87
2019-01-26T22:53:19.419Z,2.70
2019-01-26T22:55:47.146Z,5.77
2019-01-26T22:58:14.968Z,2.80
2019-01-26T23:01:17.393Z,5.90
2019-01-26T23:04:30.413Z,4.03
2019-01-26T23:07:37.316Z,2.20
2019-01-26T23:10:09.368Z,2.13
2019-01-26T23:13:04.637Z,1.60
2019-01-26T23:16:10.711Z,2.03
2019-01-26T23:18:53.856Z,1.43
2019-01-26T23:21:40.032Z,2.50
2019-01-26T23:24:39.666Z,1.97
2019-01-26T23:27:26.777Z,1.40
2019-01-26T23:30:13.870Z,1.97
2019-01-26T23:32:41.826Z,1.10
2019-01-26T23:35:09.411Z,1.40
2019-01-26T23:37:37.043Z,0.90
2019-01-26T23:40:05.077Z,2.23
2019-01-26T23:42:32.732Z,1.20
2019-01-26T23:45:00.712Z,1.27
2019-01-26T23:47:28.385Z,1.40
2019-01-26T23:49:56.424Z,2.03
2019-01-26T23:52:24.635Z,4.00
2019-01-26T23:54:52.346Z,1.60
2019-01-26T23:57:20.246Z,1.63
